Time;durP1;ratioP1;P1;durP2;ratioP2;P2;SDS_P1;SDS_P2;PMS_P1;PMS_P2;Temp;Humidity;BMP_temperature;BMP_pressure;BME280_temperature;BME280_humidity;BME280_pressure;Samples;Min_cycle;Max_cycle;Signal;HPM_P1;HPM_P2
2022/06/28 00:02:04;;;;;;;7.17;5.78;;;;;;;24.20;51.43;100124.26;2182698;81;30908;-70
2022/06/28 00:05:09;;;;;;;10.13;6.62;;;;;;;24.20;51.60;100123.77;2182180;81;27873;-70
2022/06/28 00:08:10;;;;;;;6.78;5.67;;;;;;;24.21;51.64;100115.02;2182447;81;30508;-69
2022/06/28 00:11:16;;;;;;;10.20;6.17;;;;;;;24.20;51.66;100103.23;2163917;81;27673;-69
2022/06/28 00:17:40;;;;;;;6.95;5.83;;;;;;;24.20;51.72;100101.86;2135784;83;31123;-69
2022/06/28 00:20:41;;;;;;;11.00;5.55;;;;;;;24.19;51.68;100106.13;2135904;83;33785;-69
2022/06/28 00:23:43;;;;;;;6.85;6.03;;;;;;;24.18;51.63;100111.25;2109264;83;29686;-70
2022/06/28 00:26:45;;;;;;;10.58;6.05;;;;;;;24.17;51.83;100116.38;2136195;83;27840;-69
2022/06/28 00:29:47;;;;;;;10.95;6.03;;;;;;;24.16;52.14;100122.91;2136144;83;28657;-69
2022/06/28 00:32:48;;;;;;;6.30;5.50;;;;;;;24.12;52.22;100122.37;2136033;82;31013;-69
2022/06/28 00:35:50;;;;;;;11.43;6.05;;;;;;;24.10;52.24;100135.36;2135784;83;34015;-69
2022/06/28 00:38:54;;;;;;;8.00;5.67;;;;;;;24.07;52.24;100161.73;2135985;83;29630;-71
2022/06/28 00:41:55;;;;;;;;;;;;;;;24.06;52.27;100171.80;2131547;83;27600;-68
2022/06/28 00:45:01;;;;;;;7.92;6.55;;;;;;;24.04;52.55;100176.58;2103578;84;28605;-69
2022/06/28 00:48:03;;;;;;;7.62;5.92;;;;;;;24.00;52.61;100186.67;2125608;83;31028;-68
2022/06/28 00:51:05;;;;;;;7.83;6.33;;;;;;;23.95;52.69;100181.14;2079224;84;33755;-68
2022/06/28 00:54:07;;;;;;;7.35;5.62;;;;;;;23.93;52.74;100188.66;2125380;83;29627;-70
2022/06/28 00:57:09;;;;;;;6.80;5.55;;;;;;;23.89;52.99;100194.14;2125543;83;28240;-68
2022/06/28 01:00:11;;;;;;;6.33;5.62;;;;;;;23.85;53.07;100195.48;2125480;83;28741;-69
2022/06/28 01:03:17;;;;;;;9.33;6.28;;;;;;;23.82;53.12;100198.55;2125563;83;31028;-69
2022/06/28 01:06:18;;;;;;;6.65;5.95;;;;;;;23.81;53.32;100202.30;2125585;83;32989;-69
2022/06/28 01:09:21;;;;;;;7.20;5.70;;;;;;;23.78;53.62;100205.37;2125595;83;29615;-70
2022/06/28 01:12:22;;;;;;;7.37;6.67;;;;;;;23.75;53.54;100195.63;2120873;83;27542;-68
2022/06/28 01:15:24;;;;;;;7.70;6.28;;;;;;;23.73;53.69;100193.56;2120646;83;28642;-69
2022/06/28 01:18:25;;;;;;;9.68;6.72;;;;;;;23.70;53.89;100193.04;2120174;83;32102;-71
2022/06/28 01:21:29;;;;;;;8.78;6.12;;;;;;;23.67;53.89;100205.14;2120370;84;33777;-70
2022/06/28 01:24:31;;;;;;;8.08;5.92;;;;;;;23.65;54.29;100209.95;2120418;84;30428;-70
2022/06/28 01:27:34;;;;;;;6.87;5.75;;;;;;;23.62;54.45;100202.91;2120620;83;27620;-70
2022/06/28 01:30:35;;;;;;;8.75;6.25;;;;;;;23.60;54.64;100209.58;2120125;83;29658;-68
2022/06/28 01:33:37;;;;;;;7.25;6.33;;;;;;;23.59;54.96;100199.13;2092051;84;31028;-68
2022/06/28 01:36:39;;;;;;;10.10;5.80;;;;;;;23.58;55.22;100199.31;2120392;84;32942;-71
2022/06/28 01:39:40;;;;;;;8.30;6.83;;;;;;;23.58;55.26;100193.84;2092073;83;30433;-71
2022/06/28 01:42:42;;;;;;;11.33;7.00;;;;;;;23.58;55.70;100191.10;2122260;83;27749;-69
2022/06/28 01:45:44;;;;;;;9.78;6.62;;;;;;;23.61;55.96;100198.45;2122072;83;28593;-70
2022/06/28 01:48:46;;;;;;;12.00;7.20;;;;;;;23.63;55.98;100201.89;2122066;83;31851;-72
2022/06/28 01:51:47;;;;;;;13.30;7.33;;;;;;;23.65;56.20;100206.69;2121691;83;33911;-69
2022/06/28 01:54:51;;;;;;;9.03;6.60;;;;;;;23.68;56.24;100210.96;2118080;83;29631;-71
2022/06/28 01:57:55;;;;;;;8.23;6.92;;;;;;;23.71;56.38;100207.91;2104832;84;28074;-68
2022/06/28 02:00:56;;;;;;;8.15;6.80;;;;;;;23.72;56.76;100204.67;2105783;84;28778;-71
2022/06/28 02:03:57;;;;;;;7.10;6.40;;;;;;;23.73;56.68;100214.59;2105594;84;31085;-70
2022/06/28 02:07:01;;;;;;;9.08;7.65;;;;;;;23.74;56.87;100215.79;2105837;84;34017;-69
2022/06/28 02:10:03;;;;;;;10.35;7.50;;;;;;;23.76;56.75;100221.08;2105961;83;31122;-71
2022/06/28 02:13:05;;;;;;;7.67;6.53;;;;;;;23.77;57.11;100225.53;2104702;84;28182;-70
2022/06/28 02:16:06;;;;;;;10.58;6.58;;;;;;;23.79;56.84;100227.11;2104626;84;28704;-70
2022/06/28 02:19:07;;;;;;;6.85;6.12;;;;;;;23.82;56.73;100231.38;2104567;84;31113;-73
2022/06/28 02:22:08;;;;;;;8.58;6.42;;;;;;;23.83;56.76;100234.46;2104549;84;32955;-69
2022/06/28 02:25:10;;;;;;;7.22;6.25;;;;;;;23.86;56.80;100248.31;2104643;84;30559;-71
2022/06/28 02:28:12;;;;;;;10.93;6.25;;;;;;;23.88;56.69;100249.88;2104656;84;27755;-71
2022/06/28 02:31:15;;;;;;;8.30;6.33;;;;;;;23.92;56.61;100258.61;2104608;84;28054;-69
2022/06/28 02:40:56;;;;;;;8.48;5.92;;;;;;;24.00;56.39;100278.34;2105043;84;29718;-70
2022/06/28 02:43:57;;;;;;;7.30;6.47;;;;;;;24.03;56.46;100276.65;2105912;84;27687;-70
2022/06/28 02:46:59;;;;;;;8.33;6.17;;;;;;;24.04;56.30;100277.00;2106023;84;29286;-71
2022/06/28 02:50:00;;;;;;;8.53;6.62;;;;;;;24.06;56.21;100286.75;2106007;84;31129;-68
2022/06/28 02:53:02;;;;;;;10.00;6.95;;;;;;;24.08;56.24;100297.02;2105609;84;32983;-70
2022/06/28 02:56:04;;;;;;;8.68;6.55;;;;;;;24.11;56.09;100295.83;2105502;84;30402;-68
2022/06/28 02:59:05;;;;;;;11.15;7.20;;;;;;;24.12;56.03;100301.16;2105863;84;27722;-69
2022/06/28 03:02:07;;;;;;;8.05;6.72;;;;;;;24.14;55.99;100300.97;2105921;84;28636;-71
2022/06/28 03:05:12;;;;;;;8.05;6.53;;;;;;;24.16;55.96;100315.88;2105865;84;31029;-70
2022/06/28 03:08:13;;;;;;;9.18;6.92;;;;;;;24.15;55.96;100311.43;2105798;84;32991;-68
2022/06/28 03:11:15;;;;;;;9.13;6.58;;;;;;;24.15;55.83;100313.64;2104968;84;29654;-69
2022/06/28 03:14:16;;;;;;;7.17;6.22;;;;;;;24.14;55.98;100319.30;2108643;84;27774;-71
2022/06/28 03:17:18;;;;;;;7.10;6.40;;;;;;;24.14;55.96;100327.50;2115301;84;28633;-71
2022/06/28 03:20:21;;;;;;;12.07;6.10;;;;;;;24.14;56.18;100330.23;2084837;84;27622;-70
2022/06/28 03:23:23;;;;;;;9.80;6.37;;;;;;;24.13;56.28;100317.05;2115234;84;32948;-70
2022/06/28 03:26:24;;;;;;;7.12;6.42;;;;;;;24.13;56.49;100304.73;2115143;84;29144;-70
2022/06/28 03:29:26;;;;;;;8.13;6.17;;;;;;;24.11;56.55;100283.50;2115277;84;27752;-70
2022/06/28 03:32:28;;;;;;;10.23;6.95;;;;;;;24.09;56.51;100300.60;2115158;84;28643;-70
2022/06/28 03:35:29;;;;;;;7.87;7.08;;;;;;;24.08;56.76;100301.63;2084569;84;31032;-70
2022/06/28 03:38:31;;;;;;;10.75;7.58;;;;;;;24.07;56.92;100312.25;2114681;84;33191;-69
2022/06/28 03:41:32;;;;;;;8.43;6.45;;;;;;;24.03;57.19;100305.39;2106660;84;29614;-69
2022/06/28 03:44:33;;;;;;;8.35;7.55;;;;;;;24.02;57.47;100318.72;2104693;84;27592;-69
2022/06/28 03:47:35;;;;;;;8.45;7.50;;;;;;;24.00;57.78;100324.34;2104353;84;28620;-72
2022/06/28 03:50:36;;;;;;;9.53;7.08;;;;;;;23.98;58.05;100337.36;2104284;84;31091;-69
2022/06/28 03:53:40;;;;;;;10.65;6.65;;;;;;;23.96;58.17;100355.28;2104161;84;33761;-71
2022/06/28 03:56:44;;;;;;;8.55;7.08;;;;;;;23.94;58.54;100359.19;2104083;82;29733;-72
2022/06/28 03:59:46;;;;;;;7.50;6.80;;;;;;;23.92;58.55;100366.69;2104414;84;27727;-71
2022/06/28 04:02:47;;;;;;;8.40;6.75;;;;;;;23.92;58.71;100380.38;2104337;84;28106;-70
2022/06/28 04:05:49;;;;;;;11.40;8.33;;;;;;;23.93;58.80;100384.30;2104263;84;30733;-72
2022/06/28 04:08:51;;;;;;;12.63;7.37;;;;;;;23.91;58.81;100377.29;2104068;84;32942;-71
2022/06/28 04:11:52;;;;;;;7.87;7.17;;;;;;;23.90;59.05;100370.97;2114809;83;29614;-72
2022/06/28 04:14:55;;;;;;;12.05;7.53;;;;;;;23.92;59.17;100366.69;2114744;84;27693;-72
2022/06/28 04:17:57;;;;;;;9.95;7.90;;;;;;;23.96;59.43;100355.78;2114869;83;29029;-71
2022/06/28 04:20:59;;;;;;;9.30;6.92;;;;;;;24.00;59.40;100342.13;2114778;83;31041;-71
2022/06/28 04:24:00;;;;;;;11.28;7.55;;;;;;;24.05;59.38;100353.98;2114785;84;33802;-70
2022/06/28 04:27:03;;;;;;;7.47;6.60;;;;;;;24.13;59.37;100359.48;2114717;83;30431;-70
2022/06/28 04:30:07;;;;;;;11.48;7.40;;;;;;;24.19;59.51;100370.28;2115031;83;27621;-69
2022/06/28 04:33:08;;;;;;;8.83;7.37;;;;;;;24.22;59.48;100368.09;2115400;84;28671;-68
2022/06/28 04:36:10;;;;;;;8.80;7.00;;;;;;;24.29;59.38;100369.66;2115175;84;31025;-72
2022/06/28 04:39:11;;;;;;;11.53;8.33;;;;;;;24.34;59.49;100369.16;2113492;84;33191;-71
2022/06/28 04:42:13;;;;;;;11.70;7.78;;;;;;;24.40;59.38;100367.98;2104687;84;30428;-70
2022/06/28 04:45:14;;;;;;;10.63;7.70;;;;;;;24.46;59.45;100374.67;2104642;84;27747;-70
2022/06/28 04:48:15;;;;;;;10.18;8.30;;;;;;;24.50;59.37;100381.55;2104669;84;29460;-70
2022/06/28 04:51:17;;;;;;;9.40;8.50;;;;;;;24.52;59.37;100371.78;2104548;84;30314;-71
2022/06/28 04:54:18;;;;;;;8.75;7.85;;;;;;;24.54;59.46;100377.95;2104781;84;33031;-72
2022/06/28 04:57:20;;;;;;;8.70;7.83;;;;;;;24.55;59.28;100365.98;2104123;83;29675;-71
2022/06/28 05:00:21;;;;;;;8.40;7.60;;;;;;;24.55;59.34;100355.89;2104318;84;27756;-73
2022/06/28 05:03:22;;;;;;;9.85;8.35;;;;;;;24.54;59.41;100345.09;2104225;84;28662;-71
2022/06/28 05:06:24;;;;;;;10.08;7.53;;;;;;;24.52;59.45;100346.64;2104351;84;30505;-73
2022/06/28 05:09:25;;;;;;;10.23;8.13;;;;;;;24.51;59.51;100352.26;2102824;84;32929;-72
2022/06/28 05:12:27;;;;;;;8.73;7.83;;;;;;;24.47;59.51;100352.27;2099295;84;29618;-73
2022/06/28 05:15:28;;;;;;;13.45;8.75;;;;;;;24.47;59.54;100353.11;2099322;84;27651;-70
2022/06/28 05:18:29;;;;;;;11.00;7.60;;;;;;;24.48;59.62;100343.88;2099421;84;28752;-71
2022/06/28 05:21:31;;;;;;;11.05;8.28;;;;;;;24.47;59.55;100341.31;2099293;84;31013;-72
2022/06/28 05:24:32;;;;;;;8.80;8.08;;;;;;;24.45;59.71;100341.47;2103464;84;33144;-71
2022/06/28 05:27:34;;;;;;;12.13;8.13;;;;;;;24.44;59.74;100352.07;2104196;84;29638;-71
2022/06/28 05:30:35;;;;;;;8.73;7.83;;;;;;;24.47;60.02;100356.38;2104325;84;27662;-73
2022/06/28 05:33:36;;;;;;;12.05;7.65;;;;;;;24.51;59.90;100359.11;2104361;84;28612;-72
2022/06/28 05:36:39;;;;;;;11.28;8.03;;;;;;;24.62;60.04;100368.91;2104303;84;31025;-71
2022/06/28 05:39:40;;;;;;;11.90;8.08;;;;;;;24.80;60.01;100373.78;2104181;84;33752;-70
2022/06/28 05:42:41;;;;;;;16.52;7.87;;;;;;;25.00;59.97;100373.48;2104472;84;29625;-70
2022/06/28 05:45:43;;;;;;;14.68;7.60;;;;;;;25.21;59.73;100363.39;2104671;84;27726;-73
2022/06/28 05:48:44;;;;;;;8.88;7.35;;;;;;;25.40;59.54;100363.55;2104428;84;29450;-71
2022/06/28 05:51:46;;;;;;;8.23;7.42;;;;;;;25.57;59.40;100368.56;2104346;84;31014;-75
2022/06/28 05:54:47;;;;;;;8.05;7.20;;;;;;;25.84;59.10;100376.58;2099499;84;33159;-70
2022/06/28 05:57:48;;;;;;;8.23;7.40;;;;;;;26.06;58.83;100382.69;2117351;83;29628;-71
2022/06/28 06:00:50;;;;;;;8.23;7.22;;;;;;;26.31;58.55;100395.55;2122797;83;27658;-71
2022/06/28 06:03:51;;;;;;;8.50;6.95;;;;;;;26.42;58.01;100405.26;2122211;83;28617;-71
2022/06/28 06:06:54;;;;;;;14.73;7.00;;;;;;;26.37;57.81;100410.80;2122047;83;31036;-72
2022/06/28 06:09:56;;;;;;;9.23;7.45;;;;;;;26.28;57.53;100424.73;2122030;83;32984;-72
2022/06/28 06:12:58;;;;;;;13.22;7.78;;;;;;;26.12;57.55;100424.24;2182738;81;29625;-71
2022/06/28 06:15:59;;;;;;;10.53;7.37;;;;;;;26.01;57.56;100428.17;2183001;81;27593;-71
2022/06/28 06:19:00;;;;;;;12.75;7.70;;;;;;;25.96;57.59;100430.61;2182621;81;29492;-71
2022/06/28 06:22:02;;;;;;;8.33;7.35;;;;;;;25.89;57.60;100431.29;2180882;81;31054;-72
2022/06/28 06:25:05;;;;;;;8.85;7.40;;;;;;;25.85;57.60;100434.03;2143287;83;33010;-72
2022/06/28 06:28:07;;;;;;;10.60;7.45;;;;;;;25.84;57.59;100443.83;2143491;83;29669;-71
2022/06/28 06:31:09;;;;;;;11.45;7.47;;;;;;;25.76;57.43;100438.67;2143360;83;28126;-71
2022/06/28 06:34:10;;;;;;;8.10;7.30;;;;;;;25.69;57.43;100447.27;2143218;83;28676;-71
2022/06/28 06:37:12;;;;;;;9.83;7.22;;;;;;;25.60;57.48;100450.52;2143171;83;31499;-72
2022/06/28 06:40:13;;;;;;;7.75;6.75;;;;;;;25.51;57.50;100460.30;2143316;83;32927;-72
2022/06/28 06:43:15;;;;;;;9.78;7.47;;;;;;;25.44;57.61;100465.08;2143267;82;30460;-71
2022/06/28 06:46:16;;;;;;;8.03;7.22;;;;;;;25.44;57.63;100476.58;2143406;83;27723;-70
2022/06/28 06:49:18;;;;;;;7.83;7.12;;;;;;;25.52;57.79;100483.95;2143311;83;28606;-72
2022/06/28 06:52:19;;;;;;;8.15;7.37;;;;;;;25.72;57.84;100496.33;2143112;83;31891;-69
2022/06/28 06:55:20;;;;;;;10.08;6.80;;;;;;;25.79;57.41;100499.23;2143226;83;33847;-70
2022/06/28 06:58:22;;;;;;;7.53;6.92;;;;;;;25.70;57.35;100516.22;2134907;82;29638;-71
2022/06/28 07:01:23;;;;;;;7.87;7.03;;;;;;;25.57;57.30;100522.69;2134032;83;27563;-71
2022/06/28 07:04:25;;;;;;;7.35;6.65;;;;;;;25.37;57.30;100539.45;2133860;83;28736;-73
2022/06/28 07:07:26;;;;;;;8.53;7.05;;;;;;;25.15;57.47;100536.81;2133831;83;31895;-71
2022/06/28 07:10:28;;;;;;;11.00;8.45;;;;;;;24.92;57.75;100545.63;2133851;83;33863;-71
2022/06/28 07:13:29;;;;;;;9.68;7.83;;;;;;;24.78;57.93;100538.02;2133879;83;29699;-72
2022/06/28 07:16:31;;;;;;;8.50;7.70;;;;;;;24.69;58.28;100542.56;2133709;83;27733;-69
2022/06/28 07:19:32;;;;;;;7.45;6.67;;;;;;;24.64;58.45;100544.43;2133765;83;29530;-68
2022/06/28 07:22:33;;;;;;;7.72;6.90;;;;;;;24.65;58.61;100555.73;2128921;83;31018;-69
2022/06/28 07:25:36;;;;;;;7.37;6.22;;;;;;;24.66;58.61;100556.05;2172487;81;28114;-68
2022/06/28 07:28:38;;;;;;;7.22;6.53;;;;;;;24.70;58.62;100556.12;2173018;81;30422;-68
2022/06/28 07:31:41;;;;;;;6.70;5.92;;;;;;;24.78;58.63;100559.94;2173064;81;27731;-67
2022/06/28 07:34:43;;;;;;;6.30;5.77;;;;;;;24.83;58.67;100557.55;2173179;81;28789;-68
2022/06/28 07:37:46;;;;;;;5.20;4.70;;;;;;;24.91;58.49;100559.47;2173093;81;31038;-68
2022/06/28 07:40:51;;;;;;;7.97;4.45;;;;;;;24.99;58.26;100563.11;2172914;81;33087;-68
2022/06/28 07:43:52;;;;;;;4.50;4.10;;;;;;;25.16;58.10;100567.29;2172891;81;29792;-67
2022/06/28 07:46:53;;;;;;;5.17;4.40;;;;;;;25.44;57.74;100567.94;2173090;81;27754;-69
2022/06/28 07:53:14;;;;;;;5.83;4.22;;;;;;;25.98;56.99;100572.14;2167361;81;31982;-68
2022/06/28 07:56:16;;;;;;;3.70;3.40;;;;;;;26.27;56.39;100573.54;2173097;81;33790;-69
2022/06/28 07:59:17;;;;;;;4.53;3.70;;;;;;;26.35;55.82;100578.17;2179281;81;30427;-70
2022/06/28 08:02:19;;;;;;;4.12;3.72;;;;;;;26.44;55.77;100583.14;2179489;81;27606;-67
2022/06/28 08:05:21;;;;;;;4.20;3.90;;;;;;;26.48;55.52;100589.48;2179196;81;28624;-69
2022/06/28 08:08:22;;;;;;;4.40;4.08;;;;;;;26.49;55.22;100588.98;2179277;81;31018;-72
2022/06/28 08:11:23;;;;;;;3.90;3.60;;;;;;;26.53;55.12;100587.61;2178786;81;33033;-70
2022/06/28 08:14:25;;;;;;;3.80;3.50;;;;;;;26.67;55.01;100588.27;2179469;81;29601;-68
2022/06/28 08:17:26;;;;;;;3.22;2.92;;;;;;;26.94;54.61;100580.65;2179255;81;27673;-71
2022/06/28 08:20:31;;;;;;;4.75;3.62;;;;;;;27.25;53.92;100572.95;2179149;81;29428;-70
2022/06/28 08:23:31;;;;;;;6.85;4.03;;;;;;;27.52;53.57;100576.30;2149083;81;31254;-71
2022/06/28 08:26:32;;;;;;;4.40;3.77;;;;;;;27.73;53.05;100581.16;2139968;83;33052;-67
2022/06/28 08:29:34;;;;;;;11.08;3.55;;;;;;;27.98;52.73;100567.73;2139862;83;29624;-72
2022/06/28 08:32:35;;;;;;;5.67;3.15;;;;;;;28.24;52.22;100564.61;2139956;83;27642;-69
2022/06/28 08:35:38;;;;;;;3.10;2.83;;;;;;;28.55;51.93;100571.02;2139758;83;28619;-71
2022/06/28 08:38:39;;;;;;;5.33;3.10;;;;;;;29.02;50.50;100585.52;2129045;81;31054;-68
2022/06/28 08:41:42;;;;;;;4.12;3.00;;;;;;;29.16;49.96;100590.17;2141719;83;32954;-69
2022/06/28 08:44:43;;;;;;;3.20;2.90;;;;;;;29.08;49.92;100590.29;2138931;83;30499;-68
2022/06/28 08:47:47;;;;;;;3.17;2.80;;;;;;;28.97;49.58;100586.10;2137650;83;27723;-69
2022/06/28 08:50:52;;;;;;;3.27;2.97;;;;;;;29.03;49.52;100591.38;2137843;83;28656;-68
2022/06/28 08:53:53;;;;;;;3.30;3.00;;;;;;;29.28;48.86;100591.92;2137687;83;31728;-69
2022/06/28 08:56:54;;;;;;;5.85;3.25;;;;;;;29.56;48.68;100589.84;2140472;81;33701;-70
2022/06/28 08:59:57;;;;;;;8.58;3.00;;;;;;;29.76;48.40;100590.59;2141698;83;29684;-70
2022/06/28 09:02:58;;;;;;;4.65;3.30;;;;;;;29.79;48.09;100591.05;2114999;83;28337;-69
2022/06/28 09:06:00;;;;;;;3.40;2.90;;;;;;;29.60;47.60;100593.09;2141786;83;28605;-70
2022/06/28 09:09:01;;;;;;;3.20;2.90;;;;;;;29.37;47.64;100602.36;2141659;83;30991;-69
2022/06/28 09:12:05;;;;;;;7.05;3.40;;;;;;;29.11;47.53;100611.98;2141274;83;33014;-67
2022/06/28 09:15:08;;;;;;;6.72;4.30;;;;;;;28.77;47.60;100608.73;2114756;83;29693;-68
2022/06/28 09:18:09;;;;;;;11.63;5.05;;;;;;;28.47;47.75;100611.91;2141970;83;27819;-69
2022/06/28 09:21:16;;;;;;;6.08;5.47;;;;;;;28.17;48.05;100620.09;2141496;83;28656;-69
2022/06/28 09:24:25;;;;;;;6.50;5.58;;;;;;;27.93;48.40;100622.48;2140496;83;31072;-68
2022/06/28 09:27:32;;;;;;;8.65;5.83;;;;;;;27.58;48.66;100631.98;2141064;82;32855;-69
2022/06/28 09:30:33;;;;;;;8.93;4.90;;;;;;;27.24;49.01;100644.14;2140696;83;29008;-69
2022/06/28 09:33:35;;;;;;;5.47;5.05;;;;;;;26.96;49.34;100643.73;2138471;83;27677;-67
2022/06/28 09:36:45;;;;;;;5.78;4.75;;;;;;;26.75;49.79;100649.73;2137701;83;28677;-69
2022/06/28 09:39:47;;;;;;;5.33;4.50;;;;;;;26.53;50.07;100650.80;2135402;83;31912;-70
2022/06/28 09:43:10;;;;;;;7.72;4.67;;;;;;;26.34;50.40;100654.73;2137428;83;32963;-68
2022/06/28 09:46:12;;;;;;;6.70;4.75;;;;;;;26.17;50.79;100654.73;2137469;83;29642;-68
2022/06/28 09:49:14;;;;;;;5.40;4.22;;;;;;;25.97;50.93;100656.91;2110740;83;27640;-67
2022/06/28 09:52:17;;;;;;;7.80;4.87;;;;;;;25.81;51.26;100667.34;2137461;83;28122;-68
2022/06/28 09:55:19;;;;;;;12.53;5.10;;;;;;;25.68;51.64;100663.70;2137234;83;31827;-68
2022/06/28 09:58:20;;;;;;;6.37;4.75;;;;;;;25.58;51.99;100665.70;2140316;83;32976;-69
2022/06/28 10:01:22;;;;;;;9.85;4.80;;;;;;;25.47;52.22;100660.03;2143595;82;29682;-68
2022/06/28 10:04:25;;;;;;;6.25;5.05;;;;;;;25.44;52.49;100658.98;2114441;83;27845;-69
2022/06/28 10:07:31;;;;;;;6.17;5.58;;;;;;;25.45;52.73;100660.70;2114321;83;28670;-67
2022/06/28 10:10:34;;;;;;;8.53;5.15;;;;;;;25.45;52.84;100653.84;2143144;82;31246;-68
2022/06/28 10:17:04;;;;;;;4.70;4.30;;;;;;;25.66;53.16;100656.14;2143320;83;29667;-68
2022/06/28 10:20:08;;;;;;;4.20;3.80;;;;;;;25.94;53.11;100653.99;2143158;83;28811;-69
2022/06/28 10:23:27;;;;;;;4.80;3.47;;;;;;;26.29;52.75;100644.80;2143508;83;28707;-66
2022/06/28 10:26:29;;;;;;;5.87;3.92;;;;;;;26.53;52.11;100657.67;2142044;83;31109;-69
2022/06/28 10:29:30;;;;;;;5.03;3.95;;;;;;;26.74;51.96;100659.01;2143741;83;32941;-70
2022/06/28 10:32:57;;;;;;;4.83;3.60;;;;;;;26.97;51.62;100654.54;2153571;82;30288;-70
2022/06/28 10:35:58;;;;;;;5.70;3.87;;;;;;;27.26;51.25;100664.61;2167707;82;27565;-70
2022/06/28 10:39:11;;;;;;;6.53;3.70;;;;;;;27.59;50.82;100654.34;2167302;82;28640;-68
2022/06/28 10:42:14;;;;;;;5.87;3.42;;;;;;;27.86;50.12;100660.91;2167310;82;31014;-69
2022/06/28 10:45:15;;;;;;;9.03;3.62;;;;;;;28.16;49.68;100661.08;2166982;82;32977;-70
2022/06/28 10:48:16;;;;;;;6.95;3.90;;;;;;;28.29;48.70;100665.98;2167110;82;29615;-68
2022/06/28 10:51:19;;;;;;;3.52;3.22;;;;;;;28.35;48.94;100657.00;2166749;82;27533;-68
2022/06/28 10:54:21;;;;;;;3.67;3.37;;;;;;;28.59;48.68;100666.08;2141603;83;28790;-71
2022/06/28 10:57:40;;;;;;;4.60;3.50;;;;;;;28.82;48.29;100659.16;2143717;82;31420;-74
2022/06/28 11:00:52;;;;;;;5.87;3.62;;;;;;;29.06;48.00;100663.56;2144843;82;33017;-69
2022/06/28 11:04:19;;;;;;;12.25;4.25;;;;;;;29.35;47.28;100672.95;2145179;83;30460;-68
2022/06/28 11:07:25;;;;;;;14.07;4.15;;;;;;;29.59;46.95;100679.73;2145025;82;27654;-71
2022/06/28 11:10:28;;;;;;;5.75;4.62;;;;;;;29.80;46.78;100679.76;2143895;81;28733;-77
2022/06/28 11:13:30;;;;;;;6.60;4.30;;;;;;;30.14;44.81;100679.64;2141295;83;31025;-71
2022/06/28 11:16:50;;;;;;;4.62;4.22;;;;;;;30.21;45.44;100681.09;2141450;83;32959;-70
2022/06/28 11:19:55;;;;;;;4.72;4.22;;;;;;;30.26;45.48;100677.22;2140055;83;30371;-70
2022/06/28 11:22:57;;;;;;;5.08;4.40;;;;;;;30.22;44.99;100679.20;2141427;83;27743;-73
2022/06/28 11:29:20;;;;;;;5.20;4.55;;;;;;;30.47;44.76;100683.27;2141236;82;31832;-71
2022/06/28 11:32:26;;;;;;;13.58;4.90;;;;;;;30.65;44.24;100694.41;2143113;83;33754;-70
2022/06/28 11:35:30;;;;;;;5.15;3.95;;;;;;;30.78;44.32;100686.75;2143186;83;29724;-67
2022/06/28 11:38:31;;;;;;;4.40;4.00;;;;;;;30.82;43.39;100686.69;2143283;83;27735;-68
2022/06/28 11:41:33;;;;;;;7.47;4.05;;;;;;;30.82;43.44;100696.37;2142287;83;28794;-71
2022/06/28 11:44:35;;;;;;;6.03;4.15;;;;;;;30.66;42.94;100696.66;2128805;83;31027;-71
2022/06/28 11:47:36;;;;;;;5.60;4.47;;;;;;;30.58;43.18;100697.66;2086368;83;32935;-72
2022/06/28 11:50:46;;;;;;;6.42;4.20;;;;;;;30.54;42.71;100696.30;2126081;83;29608;-72
2022/06/28 11:53:47;;;;;;;4.25;3.85;;;;;;;30.44;42.85;100695.25;2126222;83;27722;-73
2022/06/28 11:56:49;;;;;;;4.80;4.03;;;;;;;30.27;42.55;100701.59;2126086;82;29437;-73
2022/06/28 11:59:56;;;;;;;4.40;4.10;;;;;;;30.21;42.83;100692.69;2118157;81;31854;-71
2022/06/28 12:03:01;;;;;;;4.62;3.90;;;;;;;30.23;42.54;100691.42;2116313;84;33005;-71
2022/06/28 12:06:03;;;;;;;5.40;4.72;;;;;;;30.27;42.27;100683.63;2116352;83;30425;-71
2022/06/28 12:09:08;;;;;;;4.55;4.15;;;;;;;30.26;42.30;100679.14;2116578;83;27683;-70
2022/06/28 12:12:09;;;;;;;6.20;4.12;;;;;;;30.31;41.88;100676.62;2116352;83;28643;-69
2022/06/28 12:15:10;;;;;;;7.00;3.92;;;;;;;30.38;42.21;100678.94;2100879;83;31877;-68
2022/06/28 12:18:11;;;;;;;4.37;3.98;;;;;;;30.45;42.05;100677.07;2116667;83;32926;-67
2022/06/28 12:21:13;;;;;;;7.20;4.78;;;;;;;30.66;41.96;100671.23;2116726;83;30273;-68
2022/06/28 12:24:14;;;;;;;4.62;4.22;;;;;;;30.69;41.50;100679.67;2116764;84;27683;-68
2022/06/28 12:27:23;;;;;;;4.65;4.25;;;;;;;30.63;41.62;100683.22;2100277;84;28629;-67
2022/06/28 12:30:25;;;;;;;6.40;4.25;;;;;;;30.51;41.66;100677.34;2116351;83;31766;-67
2022/06/28 12:33:26;;;;;;;4.50;4.20;;;;;;;30.35;41.26;100683.47;2116577;84;33205;-70
2022/06/28 12:36:27;;;;;;;4.10;3.70;;;;;;;30.18;41.63;100683.40;2172582;81;29762;-70
2022/06/28 12:39:29;;;;;;;3.98;3.67;;;;;;;30.15;41.44;100687.42;2172226;81;27738;-69
2022/06/28 12:42:31;;;;;;;4.17;3.87;;;;;;;30.08;41.36;100680.45;2167789;81;28706;-69
2022/06/28 12:45:33;;;;;;;4.47;4.03;;;;;;;30.10;41.62;100681.63;2133387;83;31879;-69
2022/06/28 12:48:34;;;;;;;3.95;3.55;;;;;;;30.17;41.37;100682.56;2133419;83;33010;-68
2022/06/28 12:51:37;;;;;;;5.22;4.05;;;;;;;30.13;41.17;100675.70;2133590;83;29622;-68
2022/06/28 12:54:41;;;;;;;3.67;3.37;;;;;;;30.08;41.03;100671.28;2133508;83;27726;-68
2022/06/28 12:57:42;;;;;;;;;;;;;;;30.09;41.06;100681.28;2136139;83;29475;-68
2022/06/28 13:00:44;;;;;;;3.80;3.33;;;;;;;30.05;40.87;100673.92;2089506;83;30907;-69
2022/06/28 13:03:45;;;;;;;8.18;3.65;;;;;;;30.08;40.78;100668.52;2089890;85;33030;-69
2022/06/28 13:06:47;;;;;;;3.65;3.45;;;;;;;30.20;40.95;100664.17;2089828;84;29633;-69
2022/06/28 13:09:49;;;;;;;4.95;4.15;;;;;;;30.36;40.43;100669.98;2089993;85;27662;-69
2022/06/28 13:12:50;;;;;;;4.53;4.22;;;;;;;30.40;40.41;100659.38;2090187;85;29538;-69
2022/06/28 13:15:51;;;;;;;3.90;3.67;;;;;;;30.47;40.50;100650.63;2134780;82;30997;-70
2022/06/28 13:18:53;;;;;;;5.12;4.22;;;;;;;30.42;40.07;100642.94;2134819;83;32971;-70
2022/06/28 13:21:54;;;;;;;3.90;3.70;;;;;;;30.29;40.22;100638.64;2134661;83;29623;-69
2022/06/28 13:24:55;;;;;;;4.42;3.95;;;;;;;30.06;40.25;100638.34;2101267;84;27815;-70
2022/06/28 13:27:57;;;;;;;5.37;4.58;;;;;;;29.93;40.58;100636.25;2126232;83;28567;-70
2022/06/28 13:30:58;;;;;;;4.87;4.28;;;;;;;29.79;40.69;100638.54;2125781;83;31237;-70
2022/06/28 13:33:59;;;;;;;6.12;4.62;;;;;;;29.76;40.91;100641.69;2126191;83;33111;-70
2022/06/28 13:37:03;;;;;;;5.17;4.67;;;;;;;29.70;40.78;100641.41;2126191;83;29671;-70
2022/06/28 13:40:06;;;;;;;4.87;4.37;;;;;;;29.68;41.07;100638.01;2126563;83;27764;-69
2022/06/28 13:46:28;;;;;;;5.12;4.72;;;;;;;29.75;40.99;100646.36;2125856;83;31084;-69
2022/06/28 13:49:29;;;;;;;5.87;4.60;;;;;;;29.80;41.11;100636.11;2126124;83;33856;-69
2022/06/28 13:52:31;;;;;;;7.08;4.37;;;;;;;29.83;41.14;100621.38;2123391;83;29627;-68
2022/06/28 13:55:32;;;;;;;4.67;4.28;;;;;;;29.90;41.03;100630.27;2128402;83;27841;-69
2022/06/28 13:58:33;;;;;;;5.50;4.53;;;;;;;29.86;40.90;100625.67;2087439;82;28629;-69
2022/06/28 14:01:35;;;;;;;5.25;4.67;;;;;;;29.92;41.11;100630.39;2125350;83;31808;-69
2022/06/28 14:04:36;;;;;;;6.65;4.60;;;;;;;30.04;41.08;100625.75;2103222;83;33907;-69
2022/06/28 14:07:42;;;;;;;4.25;3.95;;;;;;;30.13;40.85;100628.19;2098672;83;30598;-69
2022/06/28 14:10:42;;;;;;;5.62;4.60;;;;;;;30.27;40.96;100621.43;2103186;83;28266;-69
2022/06/28 14:13:43;;;;;;;4.90;4.42;;;;;;;30.37;40.83;100612.26;2141229;83;28633;-69
2022/06/28 14:16:44;;;;;;;5.35;4.85;;;;;;;30.30;40.34;100605.30;2125097;83;31832;-70
2022/06/28 14:19:46;;;;;;;4.95;4.55;;;;;;;30.12;40.47;100604.91;2103160;84;32920;-68
2022/06/28 14:22:47;;;;;;;4.90;4.55;;;;;;;29.81;40.39;100600.53;2123114;83;29621;-70
2022/06/28 14:25:49;;;;;;;6.40;4.50;;;;;;;29.63;40.49;100602.34;2120135;84;27810;-69
2022/06/28 14:28:52;;;;;;;5.25;4.75;;;;;;;29.42;40.72;100597.13;2120433;84;28672;-69
2022/06/28 14:31:53;;;;;;;4.75;3.90;;;;;;;29.26;40.75;100586.61;2119769;84;31067;-69